createdAt,value
2023-04-15T00:00:42.260Z,7.46
2023-04-15T00:03:55.010Z,7.42
2023-04-15T00:06:57.594Z,7.44
2023-04-15T00:10:00.270Z,7.56
2023-04-15T00:13:04.398Z,7.58
2023-04-15T00:16:08.464Z,7.58
2023-04-15T00:19:11.314Z,7.55
2023-04-15T00:22:13.954Z,7.60
2023-04-15T00:25:16.781Z,7.65
2023-04-15T00:28:19.384Z,7.64
2023-04-15T00:31:22.093Z,7.58
2023-04-15T00:34:24.793Z,7.58
2023-04-15T00:37:27.425Z,7.60
2023-04-15T00:40:30.589Z,7.59
2023-04-15T00:43:33.200Z,7.68
2023-04-15T00:46:36.088Z,7.78
2023-04-15T00:49:38.670Z,7.69
2023-04-15T00:52:41.597Z,7.74
2023-04-15T00:55:44.256Z,7.69
2023-04-15T00:58:47.255Z,7.69
2023-04-15T01:01:50.316Z,7.70
2023-04-15T01:04:53.132Z,7.76
2023-04-15T01:07:56.307Z,7.74
2023-04-15T01:11:01.511Z,7.80
2023-04-15T01:14:06.073Z,7.81
2023-04-15T01:17:08.808Z,7.78
2023-04-15T01:20:12.295Z,7.70
2023-04-15T01:23:15.464Z,7.70
2023-04-15T01:26:18.108Z,7.75
2023-04-15T01:29:22.446Z,7.79
2023-04-15T01:32:26.400Z,7.82
2023-04-15T01:35:29.049Z,7.91
2023-04-15T01:38:32.234Z,7.86
2023-04-15T01:41:35.081Z,7.84
2023-04-15T01:44:37.724Z,7.82
2023-04-15T01:47:40.461Z,7.92
2023-04-15T01:50:45.892Z,7.91
2023-04-15T01:53:50.290Z,8.00
2023-04-15T01:56:53.247Z,8.00
2023-04-15T01:59:56.172Z,7.98
2023-04-15T02:02:59.463Z,7.98
2023-04-15T02:06:02.564Z,7.94
2023-04-15T02:09:05.234Z,7.90
2023-04-15T02:12:07.863Z,7.86
2023-04-15T02:15:10.810Z,7.92
2023-04-15T02:18:13.359Z,7.93
2023-04-15T02:21:15.992Z,7.91
2023-04-15T02:24:19.068Z,7.89
2023-04-15T02:27:22.617Z,7.88
2023-04-15T02:30:26.016Z,7.95
2023-04-15T02:33:28.829Z,8.10
2023-04-15T02:36:32.060Z,7.84
2023-04-15T02:39:34.649Z,7.85
2023-04-15T02:42:37.751Z,7.84
2023-04-15T02:45:43.383Z,7.83
2023-04-15T02:48:46.566Z,7.84
2023-04-15T02:51:49.830Z,7.87
2023-04-15T02:55:00.522Z,7.88
2023-04-15T02:58:05.404Z,7.87
2023-04-15T03:01:09.017Z,7.90
2023-04-15T03:04:12.357Z,7.93
2023-04-15T03:07:15.395Z,8.00
2023-04-15T03:10:18.019Z,8.01
2023-04-15T03:13:21.891Z,8.00
2023-04-15T03:16:25.269Z,8.00
2023-04-15T03:19:27.925Z,8.04
2023-04-15T03:22:31.151Z,8.06
2023-04-15T03:25:33.945Z,8.13
2023-04-15T03:28:36.582Z,8.07
2023-04-15T03:31:39.231Z,8.12
2023-04-15T03:34:42.362Z,8.10
2023-04-15T03:37:45.090Z,8.17
2023-04-15T03:40:47.753Z,8.12
2023-04-15T03:43:52.129Z,8.14
2023-04-15T03:46:54.964Z,8.06
2023-04-15T03:49:57.573Z,8.07
2023-04-15T03:53:00.793Z,8.07
2023-04-15T03:56:03.388Z,8.08
2023-04-15T03:59:06.149Z,8.16
2023-04-15T04:02:08.765Z,8.27
2023-04-15T04:05:11.800Z,8.20
2023-04-15T04:08:14.311Z,8.20
2023-04-15T04:11:17.262Z,8.18
2023-04-15T04:14:19.556Z,8.20
2023-04-15T04:17:22.544Z,8.21
2023-04-15T04:20:25.056Z,8.23
2023-04-15T04:23:27.932Z,8.23
2023-04-15T04:26:30.499Z,8.25
2023-04-15T04:29:33.416Z,8.25
2023-04-15T04:32:35.757Z,8.27
2023-04-15T04:35:38.797Z,8.28
2023-04-15T04:38:41.495Z,8.30
2023-04-15T04:41:45.171Z,8.31
2023-04-15T04:44:47.490Z,8.34
2023-04-15T04:47:50.757Z,8.40
2023-04-15T04:50:53.156Z,8.49
2023-04-15T04:53:56.714Z,8.54
2023-04-15T04:56:59.091Z,8.60
2023-04-15T05:00:04.582Z,8.70
2023-04-15T05:03:07.337Z,8.80
2023-04-15T05:06:10.725Z,8.91
2023-04-15T05:09:12.971Z,9.01
2023-04-15T05:12:15.971Z,9.12
2023-04-15T05:15:18.239Z,9.12
2023-04-15T05:18:21.345Z,9.16
2023-04-15T05:21:23.740Z,9.25
2023-04-15T05:24:26.619Z,9.37
2023-04-15T05:27:28.914Z,9.50
2023-04-15T05:30:32.036Z,9.46
2023-04-15T05:33:34.603Z,9.46
2023-04-15T05:36:37.436Z,9.53
2023-04-15T05:39:39.800Z,9.55
2023-04-15T05:42:42.834Z,9.46
2023-04-15T05:45:45.157Z,9.44
2023-04-15T05:48:48.013Z,9.58
2023-04-15T05:51:50.673Z,9.44
2023-04-15T05:54:53.527Z,9.32
2023-04-15T05:57:55.767Z,9.31
2023-04-15T06:00:58.947Z,9.31
2023-04-15T06:04:02.017Z,9.35
2023-04-15T06:07:04.749Z,9.33
2023-04-15T06:10:07.914Z,9.34
2023-04-15T06:13:10.468Z,9.38
2023-04-15T06:16:13.566Z,9.52
2023-04-15T06:19:16.242Z,9.42
2023-04-15T06:22:20.264Z,9.39
2023-04-15T06:25:23.116Z,9.44
2023-04-15T06:28:25.691Z,9.35
2023-04-15T06:31:28.947Z,9.36
2023-04-15T06:34:31.870Z,9.57
2023-04-15T06:37:34.507Z,9.89
2023-04-15T06:40:37.184Z,10.13
2023-04-15T06:43:40.177Z,10.22
2023-04-15T06:46:42.977Z,10.37
2023-04-15T06:49:45.609Z,10.39
2023-04-15T06:52:48.242Z,10.25
2023-04-15T06:55:50.929Z,10.34
2023-04-15T06:58:53.617Z,10.32
2023-04-15T07:01:56.304Z,10.27
2023-04-15T07:04:58.956Z,10.42
2023-04-15T07:08:02.012Z,10.36
2023-04-15T07:11:04.852Z,10.53
2023-04-15T07:14:07.484Z,10.70
2023-04-15T07:17:10.164Z,10.87
2023-04-15T07:20:13.010Z,11.09
2023-04-15T07:23:16.372Z,11.39
2023-04-15T07:26:19.065Z,11.64
2023-04-15T07:29:21.696Z,11.86
2023-04-15T07:32:24.323Z,12.10
2023-04-15T07:35:27.625Z,12.58
2023-04-15T07:38:30.310Z,13.06
2023-04-15T07:41:33.150Z,12.56
2023-04-15T07:44:35.740Z,12.79
2023-04-15T07:47:38.505Z,12.98
2023-04-15T07:50:41.126Z,12.91
2023-04-15T07:53:44.599Z,12.95
2023-04-15T07:56:47.200Z,13.34
2023-04-15T07:59:49.807Z,13.16
2023-04-15T08:02:54.117Z,13.31
2023-04-15T08:05:57.512Z,13.86
2023-04-15T08:09:00.544Z,14.06
2023-04-15T08:12:03.720Z,13.96
2023-04-15T08:15:08.245Z,13.81
2023-04-15T08:18:11.316Z,13.68
2023-04-15T08:21:15.005Z,13.84
2023-04-15T08:24:17.581Z,13.60
2023-04-15T08:27:20.151Z,13.32
2023-04-15T08:30:23.906Z,13.33
2023-04-15T08:33:26.461Z,13.56
2023-04-15T08:36:29.339Z,13.52
2023-04-15T08:39:31.902Z,13.64
2023-04-15T08:42:37.746Z,13.67
2023-04-15T08:45:40.549Z,13.37
2023-04-15T08:48:44.274Z,13.29
2023-04-15T08:51:47.189Z,13.13
2023-04-15T08:54:49.851Z,13.61
2023-04-15T08:57:52.757Z,14.05
2023-04-15T09:00:56.701Z,14.81
2023-04-15T09:03:59.852Z,15.46
2023-04-15T09:07:02.916Z,15.98
2023-04-15T09:10:06.588Z,16.43
2023-04-15T09:13:09.673Z,16.94
2023-04-15T09:16:12.382Z,17.19
2023-04-15T09:19:22.712Z,16.77
2023-04-15T09:22:32.321Z,16.18
2023-04-15T09:25:35.255Z,15.75
2023-04-15T09:28:43.988Z,15.53
2023-04-15T09:31:47.224Z,15.29
2023-04-15T09:34:49.798Z,15.16
2023-04-15T09:37:52.750Z,14.76
2023-04-15T09:40:56.054Z,14.12
2023-04-15T09:43:58.721Z,13.81
2023-04-15T09:47:01.894Z,13.83
2023-04-15T09:50:04.641Z,13.92
2023-04-15T09:53:09.350Z,13.66
2023-04-15T09:56:11.984Z,13.70
2023-04-15T09:59:14.584Z,13.69
2023-04-15T10:02:18.563Z,13.61
2023-04-15T10:05:21.993Z,13.33
2023-04-15T10:08:25.290Z,13.10
2023-04-15T10:11:30.329Z,12.91
2023-04-15T10:14:34.755Z,12.70
2023-04-15T10:17:38.318Z,12.56
2023-04-15T10:20:41.401Z,12.99
2023-04-15T10:23:47.391Z,13.26
2023-04-15T10:26:50.642Z,13.06
2023-04-15T10:29:54.332Z,12.93
2023-04-15T10:32:57.181Z,12.42
2023-04-15T10:36:00.680Z,12.22
2023-04-15T10:39:10.028Z,12.66
2023-04-15T10:42:16.825Z,13.00
2023-04-15T10:45:19.458Z,13.08
2023-04-15T10:48:22.382Z,12.79
2023-04-15T10:51:31.636Z,13.04
2023-04-15T10:54:36.304Z,13.25
2023-04-15T10:57:39.588Z,13.18
2023-04-15T11:00:50.049Z,12.77
2023-04-15T11:03:52.510Z,12.26
2023-04-15T11:07:05.726Z,11.66
2023-04-15T11:10:14.357Z,11.24
2023-04-15T11:13:18.113Z,11.16
2023-04-15T11:16:20.609Z,11.05
2023-04-15T11:19:23.443Z,10.97
2023-04-15T11:22:25.958Z,11.00
2023-04-15T11:25:35.773Z,11.15
2023-04-15T11:28:42.500Z,11.49
2023-04-15T11:31:50.415Z,11.98
2023-04-15T11:34:52.690Z,12.15
2023-04-15T11:37:55.819Z,12.49
2023-04-15T11:40:58.317Z,12.81
2023-04-15T11:44:01.476Z,12.83
2023-04-15T11:47:21.949Z,13.07
2023-04-15T11:50:24.898Z,13.48
2023-04-15T11:53:43.497Z,12.91
2023-04-15T11:56:50.628Z,13.06
2023-04-15T11:59:55.006Z,13.23
2023-04-15T12:03:14.294Z,13.30
2023-04-15T12:06:18.082Z,13.26
2023-04-15T12:09:21.221Z,13.28
2023-04-15T12:12:27.732Z,13.28
2023-04-15T12:15:30.353Z,13.37
2023-04-15T12:18:33.116Z,13.81
2023-04-15T12:21:36.949Z,13.92
2023-04-15T12:24:39.780Z,13.67
2023-04-15T12:27:42.569Z,13.58
2023-04-15T12:30:55.358Z,13.55
2023-04-15T12:33:58.628Z,13.48
2023-04-15T12:37:03.233Z,13.58
2023-04-15T12:40:08.493Z,13.37
2023-04-15T12:43:11.157Z,13.25
2023-04-15T12:46:13.943Z,13.27
2023-04-15T12:49:19.815Z,13.29
2023-04-15T12:52:23.111Z,13.22
2023-04-15T12:55:25.675Z,13.01
2023-04-15T12:58:28.510Z,12.93
2023-04-15T13:01:31.670Z,12.73
2023-04-15T13:04:34.320Z,12.41
2023-04-15T13:07:37.405Z,12.17
2023-04-15T13:10:40.114Z,12.22
2023-04-15T13:13:42.817Z,12.24
2023-04-15T13:16:45.732Z,12.28
2023-04-15T13:19:48.304Z,12.40
2023-04-15T13:22:52.250Z,12.31
2023-04-15T13:25:54.931Z,12.33
2023-04-15T13:28:57.471Z,12.33
2023-04-15T13:32:01.577Z,12.35
2023-04-15T13:35:05.244Z,12.70
2023-04-15T13:38:07.813Z,12.76
2023-04-15T13:41:10.571Z,12.76
2023-04-15T13:44:13.607Z,12.84
2023-04-15T13:47:16.351Z,13.03
2023-04-15T13:50:19.004Z,12.92
2023-04-15T13:53:21.789Z,12.73
2023-04-15T13:56:38.709Z,12.66
2023-04-15T13:59:41.343Z,12.51
2023-04-15T14:02:44.130Z,12.41
2023-04-15T14:05:47.184Z,12.34
2023-04-15T14:11:52.391Z,12.51
2023-04-15T14:14:54.766Z,12.81
2023-04-15T14:17:57.867Z,13.11
2023-04-15T14:21:00.409Z,13.19
2023-04-15T14:24:03.501Z,13.33
2023-04-15T14:27:12.346Z,13.28
2023-04-15T14:30:15.286Z,13.03
2023-04-15T14:33:17.857Z,12.85
2023-04-15T14:36:21.180Z,12.77
2023-04-15T14:39:23.617Z,12.63
2023-04-15T14:42:29.457Z,12.75
2023-04-15T14:45:31.809Z,12.60
2023-04-15T14:48:34.761Z,12.56
2023-04-15T14:51:37.061Z,12.61
2023-04-15T14:54:39.928Z,12.64
2023-04-15T14:57:42.743Z,12.76
2023-04-15T15:00:50.224Z,12.74
2023-04-15T15:03:53.635Z,12.86
2023-04-15T15:06:56.576Z,12.72
2023-04-15T15:09:58.854Z,12.72
2023-04-15T15:13:05.807Z,12.71
2023-04-15T15:16:08.162Z,12.72
2023-04-15T15:19:11.079Z,12.83
2023-04-15T15:22:13.376Z,12.76
2023-04-15T15:25:16.445Z,12.62
2023-04-15T15:28:18.780Z,12.52
2023-04-15T15:31:21.773Z,12.52
2023-04-15T15:34:24.349Z,12.56
2023-04-15T15:37:27.645Z,12.48
2023-04-15T15:40:29.983Z,12.37
2023-04-15T15:43:32.964Z,12.36
2023-04-15T15:46:35.541Z,12.38
2023-04-15T15:49:38.487Z,12.36
2023-04-15T15:52:40.867Z,12.40
2023-04-15T15:55:44.032Z,12.21
2023-04-15T15:58:46.351Z,12.31
2023-04-15T16:01:50.455Z,12.14
2023-04-15T16:04:53.363Z,12.02
2023-04-15T16:07:56.014Z,11.93
2023-04-15T16:10:58.644Z,11.87
2023-04-15T16:14:01.515Z,12.00
2023-04-15T16:17:04.170Z,11.83
2023-04-15T16:20:07.118Z,11.71
2023-04-15T16:23:13.759Z,11.41
2023-04-15T16:26:16.578Z,11.29
2023-04-15T16:29:19.205Z,11.19
2023-04-15T16:32:22.187Z,11.23
2023-04-15T16:35:24.973Z,11.27
2023-04-15T16:38:27.725Z,11.31
2023-04-15T16:41:31.667Z,11.34
2023-04-15T16:44:35.277Z,11.46
2023-04-15T16:47:37.964Z,11.41
2023-04-15T16:50:40.684Z,11.55
2023-04-15T16:53:43.272Z,11.50
2023-04-15T16:56:45.933Z,11.52
2023-04-15T16:59:48.523Z,11.43
2023-04-15T17:02:51.279Z,11.47
2023-04-15T17:05:53.892Z,11.37
2023-04-15T17:08:56.661Z,11.24
2023-04-15T17:11:59.318Z,11.32
2023-04-15T17:15:01.936Z,11.29
2023-04-15T17:18:04.864Z,11.21
2023-04-15T17:21:07.637Z,11.08
2023-04-15T17:24:10.263Z,10.97
2023-04-15T17:27:13.210Z,11.17
2023-04-15T17:30:16.275Z,10.93
2023-04-15T17:33:57.482Z,10.91
2023-04-15T17:36:41.619Z,10.84
2023-04-15T17:39:44.323Z,10.86
2023-04-15T17:42:47.003Z,10.91
2023-04-15T17:45:50.225Z,10.88
2023-04-15T17:48:52.904Z,10.83
2023-04-15T17:51:55.668Z,10.96
2023-04-15T17:54:58.365Z,10.82
2023-04-15T17:58:01.022Z,10.82
2023-04-15T18:01:03.616Z,10.83
2023-04-15T18:04:06.965Z,10.85
2023-04-15T18:07:09.754Z,10.84
2023-04-15T18:10:12.617Z,10.77
2023-04-15T18:13:15.038Z,10.77
2023-04-15T18:16:18.024Z,10.71
2023-04-15T18:19:23.195Z,10.71
2023-04-15T18:22:26.121Z,10.72
2023-04-15T18:25:30.078Z,10.70
2023-04-15T18:28:33.142Z,10.68
2023-04-15T18:31:35.906Z,10.66
2023-04-15T18:34:38.889Z,10.87
2023-04-15T18:37:41.360Z,10.84
2023-04-15T18:40:44.272Z,10.68
2023-04-15T18:43:46.571Z,10.61
2023-04-15T18:46:49.931Z,10.64
2023-04-15T18:49:52.280Z,10.59
2023-04-15T18:52:55.478Z,10.75
2023-04-15T18:55:58.120Z,10.79
2023-04-15T18:59:08.313Z,10.66
2023-04-15T19:02:23.505Z,10.48
2023-04-15T19:05:27.115Z,10.48
2023-04-15T19:08:29.720Z,10.56
2023-04-15T19:11:32.569Z,10.47
2023-04-15T19:14:35.115Z,10.41
2023-04-15T19:17:38.110Z,10.29
2023-04-15T19:20:40.531Z,10.26
2023-04-15T19:23:43.559Z,10.29
2023-04-15T19:26:48.112Z,10.33
2023-04-15T19:29:51.007Z,10.34
2023-04-15T19:32:53.277Z,10.33
2023-04-15T19:35:56.304Z,10.29
2023-04-15T19:39:01.613Z,10.49
2023-04-15T19:42:04.643Z,10.50
2023-04-15T19:45:07.254Z,10.37
2023-04-15T19:48:10.185Z,10.22
2023-04-15T19:51:12.488Z,10.19
2023-04-15T19:54:15.685Z,10.14
2023-04-15T19:57:18.036Z,10.13
2023-04-15T20:00:21.013Z,10.33
2023-04-15T20:03:23.953Z,10.28
2023-04-15T20:06:27.593Z,10.25
2023-04-15T20:09:30.415Z,10.13
2023-04-15T20:12:50.349Z,10.17
2023-04-15T20:15:55.207Z,10.23
2023-04-15T20:19:02.005Z,10.29
2023-04-15T20:22:05.041Z,10.08
2023-04-15T20:25:07.749Z,10.14
2023-04-15T20:28:10.481Z,9.97
2023-04-15T20:31:13.130Z,10.05
2023-04-15T20:34:15.743Z,10.08
2023-04-15T20:37:18.359Z,10.02
2023-04-15T20:40:21.604Z,10.30
2023-04-15T20:43:25.662Z,10.11
2023-04-15T20:46:28.341Z,10.02
2023-04-15T20:49:33.217Z,10.13
2023-04-15T20:52:36.051Z,10.07
2023-04-15T20:55:38.699Z,10.07
2023-04-15T20:58:41.516Z,10.00
2023-04-15T21:01:45.814Z,10.02
2023-04-15T21:04:48.424Z,10.04
2023-04-15T21:07:51.050Z,10.07
2023-04-15T21:10:53.673Z,10.07
2023-04-15T21:13:56.291Z,10.08
2023-04-15T21:16:59.263Z,10.07
2023-04-15T21:20:02.233Z,10.12
2023-04-15T21:23:05.021Z,10.09
2023-04-15T21:26:07.653Z,10.06
2023-04-15T21:29:11.621Z,10.05
2023-04-15T21:32:14.724Z,10.03
2023-04-15T21:35:17.433Z,10.04
2023-04-15T21:38:23.157Z,10.03
2023-04-15T21:41:26.306Z,10.03
2023-04-15T21:44:29.035Z,10.01
2023-04-15T21:47:31.752Z,10.04
2023-04-15T21:51:01.645Z,10.00
2023-04-15T21:54:04.285Z,10.03
2023-04-15T21:57:06.905Z,10.03
2023-04-15T22:00:10.864Z,10.10
2023-04-15T22:03:13.408Z,10.07
2023-04-15T22:06:16.380Z,10.06
2023-04-15T22:09:19.174Z,10.06
2023-04-15T22:12:22.036Z,10.01
2023-04-15T22:15:24.586Z,10.01
2023-04-15T22:18:27.197Z,10.09
2023-04-15T22:21:29.779Z,10.06
2023-04-15T22:24:39.981Z,10.07
2023-04-15T22:27:43.251Z,10.05
2023-04-15T22:30:46.099Z,10.04
2023-04-15T22:33:48.824Z,10.06
2023-04-15T22:36:52.351Z,10.08
2023-04-15T22:39:54.982Z,9.98
2023-04-15T22:42:57.554Z,9.98
2023-04-15T22:46:00.737Z,9.91
2023-04-15T22:49:03.484Z,9.91
2023-04-15T22:52:07.911Z,9.86
2023-04-15T22:55:10.595Z,9.90
2023-04-15T22:58:13.277Z,9.95
2023-04-15T23:01:18.810Z,9.85
2023-04-15T23:04:23.213Z,9.78
2023-04-15T23:07:30.713Z,9.78
2023-04-15T23:10:33.463Z,9.76
2023-04-15T23:13:36.136Z,9.78
2023-04-15T23:16:38.963Z,9.79
2023-04-15T23:19:41.606Z,9.73
2023-04-15T23:22:44.262Z,9.72
2023-04-15T23:25:46.926Z,9.69
2023-04-15T23:28:49.574Z,9.69
2023-04-15T23:31:52.307Z,9.65
2023-04-15T23:34:54.912Z,9.63
2023-04-15T23:37:57.441Z,9.65
2023-04-15T23:40:59.940Z,9.60
2023-04-15T23:44:02.558Z,9.59
2023-04-15T23:47:05.262Z,9.57
2023-04-15T23:50:08.242Z,9.56
2023-04-15T23:53:10.847Z,9.51
2023-04-15T23:56:13.434Z,9.49
2023-04-15T23:59:16.269Z,9.45
